TAF KIAD
AMD KIAD 082102Z 0821/0924 26007KT P6SM BKN070 BKN110 FM082300 29008KT P6SM BKN080 FM090100 32008G16KT P6SM FEW250 FM091900 18004KT P6SM OVC250=
METAR KIAD
KIAD 082052Z 24004KT 10SM FEW085 BKN140 BKN250 06/M03 A2989 RMK AO2 SLP123 T00561033 56016 ?
KIAD 081952Z 19005KT 10SM BKN085 BKN150 OVC250 06/M04 A2989 RMK AO2 SLP124 T00561039 ?
KIAD 081852Z 20005KT 10SM FEW055 SCT160 BKN250 06/M04 A2991 RMK AO2 SLP129 T00561044 ?
KIAD 081752Z 18006KT 10SM BKN160 BKN250 05/M04 A2993 RMK AO2 SLP138 T00501044 10056 20017 58034 ?
KIAD 081652Z 15004KT 10SM BKN045 OVC060 04/M05 A2998 RMK AO2 SLP154 T00441050 ?
WC KIAD
WS KIAD
WV KIAD